createdAt,value
2023-02-14T00:01:11.400Z,102270.97
2023-02-14T00:03:39.332Z,102268.41
2023-02-14T00:06:12.305Z,102267.59
2023-02-14T00:08:41.122Z,102275.31
2023-02-14T00:11:10.861Z,102277.06
2023-02-14T00:13:38.316Z,102267.59
2023-02-14T00:16:06.061Z,102275.25
2023-02-14T00:18:51.913Z,102269.22
2023-02-14T00:21:20.303Z,102269.16
2023-02-14T00:23:47.387Z,102266.56
2023-02-14T00:26:15.372Z,102285.34
2023-02-14T00:28:43.163Z,102271.66
2023-02-14T00:31:10.644Z,102262.25
2023-02-14T00:33:38.108Z,102265.66
2023-02-14T00:36:10.106Z,102266.53
2023-02-14T00:38:37.240Z,102262.28
2023-02-14T00:41:05.063Z,102253.72
2023-02-14T00:43:32.464Z,102252.88
2023-02-14T00:45:59.597Z,102252.88
2023-02-14T00:48:26.929Z,102256.28
2023-02-14T00:50:54.788Z,102252.88
2023-02-14T00:53:21.874Z,102246.84
2023-02-14T00:55:50.227Z,102244.28
2023-02-14T00:58:17.655Z,102257.97
2023-02-14T01:00:44.785Z,102256.28
2023-02-14T01:03:11.889Z,102254.63
2023-02-14T01:05:40.978Z,102259.81
2023-02-14T01:08:08.051Z,102247.88
2023-02-14T01:10:36.951Z,102246.19
2023-02-14T01:13:04.448Z,102245.34
2023-02-14T01:15:32.217Z,102248.78
2023-02-14T01:18:00.135Z,102249.59
2023-02-14T01:20:27.641Z,102243.59
2023-02-14T01:22:54.841Z,102242.75
2023-02-14T01:25:21.929Z,102240.16
2023-02-14T01:27:49.332Z,102235.03
2023-02-14T01:30:16.643Z,102232.44
2023-02-14T01:32:43.745Z,102231.59
2023-02-14T01:35:11.916Z,102227.38
2023-02-14T01:37:39.332Z,102220.50
2023-02-14T01:40:08.476Z,102223.91
2023-02-14T01:42:36.914Z,102217.03
2023-02-14T01:45:19.091Z,102217.91
2023-02-14T01:47:49.831Z,102223.91
2023-02-14T01:50:24.229Z,102217.03
2023-02-14T01:52:56.149Z,102217.91
2023-02-14T01:55:25.493Z,102211.88
2023-02-14T01:57:59.519Z,102224.75
2023-02-14T02:00:45.494Z,102213.63
2023-02-14T02:03:14.233Z,102208.44
2023-02-14T02:05:46.853Z,102213.53
2023-02-14T02:08:15.127Z,102210.97
2023-02-14T02:10:42.998Z,102203.28
2023-02-14T02:13:17.195Z,102205.00
2023-02-14T02:15:59.300Z,102211.00
2023-02-14T02:18:36.662Z,102219.63
2023-02-14T02:21:20.089Z,102217.06
2023-02-14T02:24:16.109Z,102208.47
2023-02-14T02:26:52.270Z,102205.91
2023-02-14T02:29:33.508Z,102193.03
2023-02-14T02:32:28.242Z,102195.63
2023-02-14T02:34:58.639Z,102194.75
2023-02-14T02:37:54.240Z,102189.66
2023-02-14T02:40:45.545Z,102185.38
2023-02-14T02:43:22.639Z,102193.97
2023-02-14T02:46:20.072Z,102193.09
2023-02-14T02:49:13.296Z,102187.94
2023-02-14T02:52:13.281Z,102193.06
2023-02-14T02:54:45.031Z,102193.91
2023-02-14T02:57:18.665Z,102187.91
2023-02-14T02:59:46.269Z,102181.84
2023-02-14T03:02:20.813Z,102183.56
2023-02-14T03:04:56.037Z,102191.25
2023-02-14T03:07:45.317Z,102186.97
2023-02-14T03:10:20.353Z,102190.41
2023-02-14T03:13:15.783Z,102178.44
2023-02-14T03:15:58.153Z,102186.97
2023-02-14T03:18:45.328Z,102181.03
2023-02-14T03:21:35.736Z,102180.16
2023-02-14T03:24:27.231Z,102185.25
2023-02-14T03:27:10.689Z,102189.53
2023-02-14T03:29:47.418Z,102174.06
2023-02-14T03:32:29.689Z,102177.47
2023-02-14T03:35:09.282Z,102177.41
2023-02-14T03:37:59.333Z,102185.09
2023-02-14T03:40:35.868Z,102187.69
2023-02-14T03:43:10.218Z,102186.84
2023-02-14T03:45:44.990Z,102180.03
2023-02-14T03:48:12.658Z,102188.59
2023-02-14T03:50:42.778Z,102180.91
2023-02-14T03:53:11.312Z,102176.63
2023-02-14T03:55:45.000Z,102186.06
2023-02-14T03:58:20.907Z,102180.97
2023-02-14T04:00:50.862Z,102183.50
2023-02-14T04:03:18.798Z,102186.97
2023-02-14T04:05:52.214Z,102192.06
2023-02-14T04:08:27.989Z,102181.81
2023-02-14T04:10:57.559Z,102182.69
2023-02-14T04:13:25.224Z,102180.13
2023-02-14T04:15:52.319Z,102178.38
2023-02-14T04:18:37.956Z,102177.50
2023-02-14T04:21:05.638Z,102178.34
2023-02-14T04:23:32.834Z,102179.16
2023-02-14T04:25:59.939Z,102175.75
2023-02-14T04:28:27.403Z,102168.00
2023-02-14T04:30:54.497Z,102163.75
2023-02-14T04:33:21.578Z,102168.84
2023-02-14T04:35:49.119Z,102165.44
2023-02-14T04:38:16.236Z,102174.03
2023-02-14T04:40:43.317Z,102171.47
2023-02-14T04:43:10.713Z,102176.63
2023-02-14T04:45:37.777Z,102181.78
2023-02-14T04:48:04.930Z,102182.63
2023-02-14T04:50:32.334Z,102179.22
2023-02-14T04:52:59.394Z,102176.69
2023-02-14T04:55:26.529Z,102171.56
2023-02-14T04:57:53.961Z,102176.72
2023-02-14T05:00:21.514Z,102175.87
2023-02-14T05:02:48.700Z,102173.28
2023-02-14T05:05:16.240Z,102175.94
2023-02-14T05:07:47.596Z,102164.84
2023-02-14T05:10:15.166Z,102169.16
2023-02-14T05:12:42.608Z,102174.31
2023-02-14T05:15:10.166Z,102170.84
2023-02-14T05:17:37.320Z,102176.03
2023-02-14T05:20:05.935Z,102169.13
2023-02-14T05:22:33.141Z,102179.44
2023-02-14T05:25:00.761Z,102180.28
2023-02-14T05:27:28.123Z,102172.53
2023-02-14T05:29:55.223Z,102178.47
2023-02-14T05:32:22.348Z,102179.25
2023-02-14T05:34:49.750Z,102178.47
2023-02-14T05:37:16.823Z,102178.44
2023-02-14T05:39:43.948Z,102175.03
2023-02-14T05:42:11.348Z,102177.53
2023-02-14T05:44:38.406Z,102175.00
2023-02-14T05:47:05.478Z,102184.44
2023-02-14T05:49:32.998Z,102185.47
2023-02-14T05:52:00.093Z,102188.09
2023-02-14T05:54:27.327Z,102187.19
2023-02-14T05:56:54.736Z,102194.91
2023-02-14T05:59:21.934Z,102201.72
2023-02-14T06:01:49.081Z,102206.84
2023-02-14T06:04:16.474Z,102198.22
2023-02-14T06:06:43.588Z,102201.59
2023-02-14T06:09:10.727Z,102205.78
2023-02-14T06:11:38.109Z,102209.16
2023-02-14T06:14:05.179Z,102208.34
2023-02-14T06:16:32.284Z,102216.87
2023-02-14T06:18:59.742Z,102215.94
2023-02-14T06:21:26.865Z,102221.06
2023-02-14T06:23:54.013Z,102224.44
2023-02-14T06:26:21.900Z,102223.41
2023-02-14T06:28:56.281Z,102226.72
2023-02-14T06:31:24.900Z,102231.69
2023-02-14T06:33:52.492Z,102230.06
2023-02-14T06:36:20.011Z,102224.84
2023-02-14T06:38:48.082Z,102236.66
2023-02-14T06:41:17.165Z,102231.62
2023-02-14T06:43:46.191Z,102231.69
2023-02-14T06:46:13.643Z,102236.81
2023-02-14T06:48:40.785Z,102240.41
2023-02-14T06:51:07.926Z,102242.38
2023-02-14T06:53:35.519Z,102250.91
2023-02-14T06:56:02.724Z,102259.41
2023-02-14T06:58:30.185Z,102258.56
2023-02-14T07:00:58.891Z,102261.22
2023-02-14T07:03:27.139Z,102266.41
2023-02-14T07:05:54.841Z,102259.63
2023-02-14T07:08:22.312Z,102263.19
2023-02-14T07:10:49.407Z,102255.59
2023-02-14T07:13:16.482Z,102260.78
2023-02-14T07:15:43.947Z,102257.47
2023-02-14T07:18:11.651Z,102253.22
2023-02-14T07:20:38.792Z,102264.37
2023-02-14T07:23:06.215Z,102266.09
2023-02-14T07:25:33.298Z,102253.22
2023-02-14T07:28:00.519Z,102254.06
2023-02-14T07:30:28.237Z,102255.72
2023-02-14T07:32:55.388Z,102264.22
2023-02-14T07:35:22.491Z,102274.34
2023-02-14T07:37:50.536Z,102273.41
2023-02-14T07:40:17.765Z,102273.38
2023-02-14T07:42:44.868Z,102275.59
2023-02-14T07:45:21.978Z,102270.19
2023-02-14T07:47:51.506Z,102268.69
2023-02-14T07:50:19.773Z,102280.97
2023-02-14T07:52:47.062Z,102274.34
2023-02-14T07:55:14.302Z,102278.69
2023-02-14T07:57:41.775Z,102275.62
2023-02-14T08:00:09.514Z,102275.56
2023-02-14T08:02:39.002Z,102278.75
2023-02-14T08:05:06.948Z,102277.22
2023-02-14T08:07:34.114Z,102271.94
2023-02-14T08:10:01.205Z,102276.81
2023-02-14T08:12:47.298Z,102273.19
2023-02-14T08:15:33.382Z,102278.22
2023-02-14T08:18:00.832Z,102274.91
2023-02-14T08:20:27.978Z,102278.09
2023-02-14T08:22:56.276Z,102279.25
2023-02-14T08:25:23.690Z,102280.87
2023-02-14T08:27:50.788Z,102279.34
2023-02-14T08:30:18.419Z,102273.13
2023-02-14T08:32:45.972Z,102274.44
2023-02-14T08:35:13.440Z,102287.56
2023-02-14T08:37:40.976Z,102273.47
2023-02-14T08:40:08.811Z,102286.00
2023-02-14T08:42:36.002Z,102283.59
2023-02-14T08:45:03.400Z,102281.41
2023-02-14T08:47:38.288Z,102287.59
2023-02-14T08:50:07.160Z,102289.44
2023-02-14T08:52:34.601Z,102292.22
2023-02-14T08:55:02.877Z,102281.56
2023-02-14T08:57:30.069Z,102287.19
2023-02-14T08:59:57.605Z,102287.91
2023-02-14T09:02:24.815Z,102284.41
2023-02-14T09:04:52.098Z,102277.25
2023-02-14T09:07:19.898Z,102286.78
2023-02-14T09:09:47.418Z,102290.59
2023-02-14T09:12:14.527Z,102282.31
2023-02-14T09:14:44.127Z,102288.00
2023-02-14T09:17:15.462Z,102288.41
2023-02-14T09:19:43.084Z,102290.13
2023-02-14T09:22:11.393Z,102294.28
2023-02-14T09:24:39.797Z,102296.59
2023-02-14T09:27:07.890Z,102285.16
2023-02-14T09:29:35.016Z,102290.97
2023-02-14T09:32:02.966Z,102301.13
2023-02-14T09:34:31.179Z,102287.56
2023-02-14T09:37:16.541Z,102289.31
2023-02-14T09:39:43.891Z,102291.69
2023-02-14T09:42:40.423Z,102295.44
2023-02-14T09:45:28.045Z,102299.00
2023-02-14T09:48:30.584Z,102298.97
2023-02-14T09:51:07.447Z,102288.63
2023-02-14T09:54:02.195Z,102293.91
2023-02-14T09:56:57.667Z,102303.03
2023-02-14T09:59:49.691Z,102296.19
2023-02-14T10:02:36.193Z,102296.62
2023-02-14T10:05:13.582Z,102302.50
2023-02-14T10:07:52.761Z,102294.19
2023-02-14T10:10:40.207Z,102282.25
2023-02-14T10:13:22.690Z,102291.47
2023-02-14T10:15:58.944Z,102285.88
2023-02-14T10:18:41.448Z,102282.59
2023-02-14T10:21:09.468Z,102283.63
2023-02-14T10:23:46.935Z,102288.56
2023-02-14T10:26:34.082Z,102274.28
2023-02-14T10:29:04.211Z,102267.59
2023-02-14T10:31:51.579Z,102275.81
2023-02-14T10:34:27.036Z,102273.69
2023-02-14T10:37:03.964Z,102267.94
2023-02-14T10:39:57.220Z,102269.88
2023-02-14T10:42:46.194Z,102265.66
2023-02-14T10:45:28.907Z,102267.13
2023-02-14T10:48:16.670Z,102268.91
2023-02-14T10:50:58.463Z,102259.91
2023-02-14T10:53:49.331Z,102252.62
2023-02-14T10:56:41.132Z,102251.63
2023-02-14T10:59:23.045Z,102249.03
2023-02-14T11:01:52.701Z,102246.53
2023-02-14T11:04:22.368Z,102254.38
2023-02-14T11:06:50.301Z,102255.59
2023-02-14T11:09:18.577Z,102255.97
2023-02-14T11:11:53.632Z,102246.91
2023-02-14T11:14:22.065Z,102248.44
2023-02-14T11:16:51.847Z,102252.44
2023-02-14T11:19:27.008Z,102244.91
2023-02-14T11:21:59.326Z,102248.69
2023-02-14T11:24:29.489Z,102248.00
2023-02-14T11:27:01.096Z,102243.66
2023-02-14T11:29:33.626Z,102243.59
2023-02-14T11:32:14.049Z,102243.66
2023-02-14T11:34:44.862Z,102235.59
2023-02-14T11:37:27.201Z,102234.22
2023-02-14T11:39:56.613Z,102238.94
2023-02-14T11:42:35.672Z,102237.44
2023-02-14T11:45:05.308Z,102223.88
2023-02-14T11:47:37.498Z,102226.44
2023-02-14T11:50:22.014Z,102230.88
2023-02-14T11:52:51.847Z,102237.53
2023-02-14T11:55:26.060Z,102237.16
2023-02-14T11:57:54.283Z,102233.03
2023-02-14T12:00:23.439Z,102225.03
2023-02-14T12:02:51.146Z,102230.16
2023-02-14T12:05:43.350Z,102226.78
2023-02-14T12:08:11.102Z,102220.44
2023-02-14T12:10:39.328Z,102222.34
2023-02-14T12:13:09.442Z,102221.34
2023-02-14T12:15:37.973Z,102215.97
2023-02-14T12:18:30.148Z,102226.16
2023-02-14T12:21:06.945Z,102223.47
2023-02-14T12:23:42.095Z,102211.94
2023-02-14T12:26:25.084Z,102210.34
2023-02-14T12:29:17.797Z,102216.72
2023-02-14T12:31:46.764Z,102212.44
2023-02-14T12:34:15.325Z,102211.66
2023-02-14T12:37:14.153Z,102204.19
2023-02-14T12:39:54.595Z,102204.88
2023-02-14T12:42:35.015Z,102210.38
2023-02-14T12:45:28.484Z,102203.47
2023-02-14T12:48:04.717Z,102204.19
2023-02-14T12:51:26.068Z,102196.72
2023-02-14T12:54:08.302Z,102199.50
2023-02-14T12:57:01.158Z,102200.06
2023-02-14T12:59:50.905Z,102192.53
2023-02-14T13:02:18.320Z,102190.63
2023-02-14T13:04:52.088Z,102194.59
2023-02-14T13:07:45.422Z,102183.19
2023-02-14T13:10:43.502Z,102178.34
2023-02-14T13:13:29.919Z,102186.75
2023-02-14T13:16:19.037Z,102183.22
2023-02-14T13:19:06.609Z,102175.94
2023-02-14T13:21:35.929Z,102170.38
2023-02-14T13:24:23.147Z,102174.38
2023-02-14T13:26:54.680Z,102187.25
2023-02-14T13:29:24.105Z,102171.44
2023-02-14T13:31:57.112Z,102180.31
2023-02-14T13:34:34.213Z,102170.47
2023-02-14T13:37:03.781Z,102168.72
2023-02-14T13:39:38.741Z,102173.34
2023-02-14T13:42:07.247Z,102172.06
2023-02-14T13:44:49.079Z,102175.91
2023-02-14T13:47:18.008Z,102174.50
2023-02-14T13:49:57.082Z,102175.16
2023-02-14T13:52:47.308Z,102178.16
2023-02-14T13:55:19.281Z,102172.50
2023-02-14T13:57:48.228Z,102169.13
2023-02-14T14:00:21.667Z,102169.75
2023-02-14T14:02:56.862Z,102162.13
2023-02-14T14:05:47.698Z,102169.88
2023-02-14T14:08:21.126Z,102172.91
2023-02-14T14:10:55.305Z,102173.19
2023-02-14T14:13:40.856Z,102169.78
2023-02-14T14:16:20.903Z,102171.88
2023-02-14T14:18:48.957Z,102168.66
2023-02-14T14:21:59.247Z,102167.84
2023-02-14T14:24:32.211Z,102170.41
2023-02-14T14:27:15.500Z,102167.59
2023-02-14T14:29:47.040Z,102173.03
2023-02-14T14:32:28.537Z,102171.75
2023-02-14T14:35:20.632Z,102170.66
2023-02-14T14:37:55.840Z,102168.75
2023-02-14T14:40:36.160Z,102175.63
2023-02-14T14:43:12.399Z,102179.09
2023-02-14T14:45:42.984Z,102162.37
2023-02-14T14:48:17.305Z,102154.53
2023-02-14T14:50:46.403Z,102170.97
2023-02-14T14:53:21.327Z,102163.22
2023-02-14T14:55:52.324Z,102160.69
2023-02-14T14:58:38.263Z,102167.62
2023-02-14T15:01:08.536Z,102161.59
2023-02-14T15:03:35.750Z,102168.41
2023-02-14T15:06:22.644Z,102167.56
2023-02-14T15:08:51.444Z,102166.47
2023-02-14T15:11:38.392Z,102174.22
2023-02-14T15:14:09.016Z,102166.88
2023-02-14T15:16:47.232Z,102162.28
2023-02-14T15:19:17.589Z,102166.88
2023-02-14T15:21:45.815Z,102163.03
2023-02-14T15:24:15.114Z,102169.69
2023-02-14T15:26:47.087Z,102166.19
2023-02-14T15:29:26.684Z,102172.19
2023-02-14T15:31:54.706Z,102166.41
2023-02-14T15:34:30.476Z,102179.47
2023-02-14T15:37:03.662Z,102178.09
2023-02-14T15:39:40.552Z,102170.69
2023-02-14T15:42:32.949Z,102181.41
2023-02-14T15:45:22.563Z,102168.97
2023-02-14T15:48:03.942Z,102182.03
2023-02-14T15:50:36.200Z,102171.50
2023-02-14T15:53:28.721Z,102175.84
2023-02-14T15:56:12.784Z,102174.22
2023-02-14T15:58:40.783Z,102177.75
2023-02-14T16:01:08.337Z,102173.81
2023-02-14T16:03:39.397Z,102173.16
2023-02-14T16:06:07.064Z,102178.47
2023-02-14T16:08:36.838Z,102177.91
2023-02-14T16:11:15.911Z,102184.19
2023-02-14T16:13:46.931Z,102183.63
2023-02-14T16:16:15.456Z,102186.41
2023-02-14T16:18:54.194Z,102181.38
2023-02-14T16:21:29.260Z,102188.38
2023-02-14T16:24:05.503Z,102188.72
2023-02-14T16:26:34.385Z,102199.31
2023-02-14T16:29:05.705Z,102207.06
2023-02-14T16:31:34.183Z,102202.53
2023-02-14T16:34:01.654Z,102201.66
2023-02-14T16:36:30.852Z,102208.50
2023-02-14T16:38:58.926Z,102203.31
2023-02-14T16:41:27.910Z,102208.41
2023-02-14T16:43:55.956Z,102209.28
2023-02-14T16:46:26.165Z,102210.91
2023-02-14T16:48:53.530Z,102212.06
2023-02-14T16:51:28.782Z,102218.88
2023-02-14T16:53:58.559Z,102220.72
2023-02-14T16:56:33.899Z,102216.56
2023-02-14T16:59:01.325Z,102224.38
2023-02-14T17:01:28.561Z,102217.66
2023-02-14T17:03:55.889Z,102219.50
2023-02-14T17:06:27.654Z,102222.97
2023-02-14T17:08:56.848Z,102216.13
2023-02-14T17:11:25.612Z,102229.06
2023-02-14T17:13:53.573Z,102225.75
2023-02-14T17:16:21.101Z,102229.28
2023-02-14T17:18:53.648Z,102235.31
2023-02-14T17:21:22.815Z,102237.00
2023-02-14T17:23:50.450Z,102235.31
2023-02-14T17:26:20.419Z,102234.59
2023-02-14T17:28:47.633Z,102238.91
2023-02-14T17:31:15.552Z,102245.81
2023-02-14T17:33:42.766Z,102239.84
2023-02-14T17:36:12.849Z,102239.06
2023-02-14T17:38:43.351Z,102237.31
2023-02-14T17:41:15.418Z,102242.50
2023-02-14T17:43:44.080Z,102240.78
2023-02-14T17:46:14.165Z,102234.81
2023-02-14T17:48:45.360Z,102232.22
2023-02-14T17:51:14.366Z,102236.56
2023-02-14T17:53:41.767Z,102232.28
2023-02-14T17:56:14.674Z,102233.16
2023-02-14T17:58:42.248Z,102240.91
2023-02-14T18:01:11.552Z,102234.06
2023-02-14T18:03:39.505Z,102235.75
2023-02-14T18:06:07.506Z,102246.94
2023-02-14T18:08:37.793Z,102231.50
2023-02-14T18:11:06.823Z,102231.50
2023-02-14T18:13:34.803Z,102235.81
2023-02-14T18:16:03.315Z,102224.66
2023-02-14T18:18:31.373Z,102223.81
2023-02-14T18:21:00.757Z,102221.28
2023-02-14T18:23:28.964Z,102228.16
2023-02-14T18:25:58.190Z,102225.56
2023-02-14T18:28:26.045Z,102221.31
2023-02-14T18:30:53.854Z,102221.31
2023-02-14T18:33:21.463Z,102217.88
2023-02-14T18:35:48.600Z,102206.72
2023-02-14T18:38:15.774Z,102212.75
2023-02-14T18:40:43.338Z,102217.88
2023-02-14T18:43:10.500Z,102212.78
2023-02-14T18:45:38.716Z,102209.34
2023-02-14T18:48:06.600Z,102211.94
2023-02-14T18:50:33.817Z,102214.53
2023-02-14T18:53:01.036Z,102215.41
2023-02-14T18:55:28.918Z,102218.84
2023-02-14T18:57:56.090Z,102215.44
2023-02-14T19:00:23.653Z,102214.62
2023-02-14T19:02:51.513Z,102219.75
2023-02-14T19:05:18.798Z,102209.47
2023-02-14T19:07:46.167Z,102219.78
2023-02-14T19:10:13.676Z,102215.50
2023-02-14T19:12:40.868Z,102214.62
2023-02-14T19:15:08.534Z,102224.03
2023-02-14T19:17:37.742Z,102223.19
2023-02-14T19:20:08.578Z,102212.91
2023-02-14T19:22:39.946Z,102218.94
2023-02-14T19:25:08.392Z,102211.22
2023-02-14T19:27:36.983Z,102213.78
2023-02-14T19:30:05.001Z,102214.66
2023-02-14T19:32:32.169Z,102218.94
2023-02-14T19:34:59.640Z,102212.91
2023-02-14T19:37:26.918Z,102215.50
2023-02-14T19:39:54.101Z,102216.34
2023-02-14T19:42:21.663Z,102215.47
2023-02-14T19:44:48.866Z,102209.50
2023-02-14T19:47:30.924Z,102215.47
2023-02-14T19:50:01.290Z,102221.44
2023-02-14T19:52:28.548Z,102228.34
2023-02-14T19:54:56.010Z,102218.84
2023-02-14T19:57:23.959Z,102217.97
2023-02-14T19:59:51.116Z,102219.69
2023-02-14T20:02:19.838Z,102229.94
2023-02-14T20:04:47.358Z,102224.88
2023-02-14T20:07:14.541Z,102217.13
2023-02-14T20:09:41.762Z,102224.81
2023-02-14T20:12:09.884Z,102218.81
2023-02-14T20:14:50.341Z,102226.50
2023-02-14T20:17:19.445Z,102235.91
2023-02-14T20:19:46.719Z,102223.97
2023-02-14T20:22:13.893Z,102225.66
2023-02-14T20:24:41.464Z,102229.13
2023-02-14T20:27:08.684Z,102229.09
2023-02-14T20:29:38.863Z,102228.19
2023-02-14T20:32:06.583Z,102225.63
2023-02-14T20:34:33.931Z,102223.91
2023-02-14T20:37:01.113Z,102227.38
2023-02-14T20:39:31.910Z,102222.19
2023-02-14T20:42:00.082Z,102224.78
2023-02-14T20:44:27.725Z,102226.47
2023-02-14T20:46:56.058Z,102219.63
2023-02-14T20:49:24.987Z,102229.87
2023-02-14T20:51:52.552Z,102226.44
2023-02-14T20:54:21.754Z,102220.44
2023-02-14T20:56:50.739Z,102216.13
2023-02-14T20:59:24.301Z,102215.25
2023-02-14T21:01:51.915Z,102212.75
2023-02-14T21:04:19.230Z,102218.72
2023-02-14T21:06:48.708Z,102213.59
2023-02-14T21:09:18.536Z,102200.69
2023-02-14T21:11:45.683Z,102215.31
2023-02-14T21:14:13.274Z,102211.88
2023-02-14T21:16:40.692Z,102208.47
2023-02-14T21:19:07.768Z,102213.56
2023-02-14T21:21:36.501Z,102202.44
2023-02-14T21:24:07.274Z,102211.84
2023-02-14T21:26:34.814Z,102191.38
2023-02-14T21:29:02.111Z,102207.59
2023-02-14T21:31:30.017Z,102207.59
2023-02-14T21:33:58.662Z,102217.03
2023-02-14T21:36:27.927Z,102210.22
2023-02-14T21:38:58.230Z,102217.03
2023-02-14T21:41:27.658Z,102211.88
2023-02-14T21:43:58.794Z,102210.16
2023-02-14T21:46:30.896Z,102208.47
2023-02-14T21:49:18.444Z,102209.19
2023-02-14T21:51:46.468Z,102214.41
2023-02-14T21:54:13.741Z,102211.84
2023-02-14T21:56:44.172Z,102211.84
2023-02-14T21:59:11.989Z,102210.91
2023-02-14T22:01:41.506Z,102213.50
2023-02-14T22:04:11.427Z,102216.94
2023-02-14T22:06:40.694Z,102222.03
2023-02-14T22:09:08.100Z,102222.87
2023-02-14T22:11:35.509Z,102224.53
2023-02-14T22:14:02.706Z,102218.50
2023-02-14T22:16:30.004Z,102221.09
2023-02-14T22:18:57.400Z,102234.00
2023-02-14T22:21:26.660Z,102210.03
2023-02-14T22:23:55.044Z,102215.12
2023-02-14T22:26:23.969Z,102227.06
2023-02-14T22:28:54.007Z,102222.78
2023-02-14T22:31:21.421Z,102220.13
2023-02-14T22:33:49.189Z,102224.41
2023-02-14T22:36:16.528Z,102230.37
2023-02-14T22:38:43.971Z,102233.81
2023-02-14T22:41:16.640Z,102232.09
2023-02-14T22:43:44.310Z,102240.63
2023-02-14T22:46:23.325Z,102239.75
2023-02-14T22:48:51.279Z,102228.62
2023-02-14T22:51:32.678Z,102234.66
2023-02-14T22:54:05.599Z,102240.63
2023-02-14T22:56:35.378Z,102233.66
2023-02-14T22:59:05.861Z,102230.09
2023-02-14T23:01:34.450Z,102235.09
2023-02-14T23:04:03.378Z,102233.34
2023-02-14T23:06:32.453Z,102237.59
2023-02-14T23:09:00.190Z,102234.19
2023-02-14T23:11:29.768Z,102231.62
2023-02-14T23:14:16.012Z,102232.59
2023-02-14T23:17:03.193Z,102239.38
2023-02-14T23:19:51.134Z,102234.22
2023-02-14T23:22:22.331Z,102228.28
2023-02-14T23:24:51.433Z,102223.09
2023-02-14T23:27:25.584Z,102224.84
2023-02-14T23:29:52.722Z,102230.84
2023-02-14T23:32:20.204Z,102233.44
2023-02-14T23:34:47.398Z,102230.94
2023-02-14T23:37:14.737Z,102228.31
2023-02-14T23:39:42.156Z,102227.44
2023-02-14T23:42:11.675Z,102227.47
2023-02-14T23:44:38.767Z,102228.22
2023-02-14T23:47:08.620Z,102221.31
2023-02-14T23:49:37.520Z,102224.59
2023-02-14T23:52:06.687Z,102227.16
2023-02-14T23:54:34.718Z,102233.22
2023-02-14T23:57:02.032Z,102229.75
2023-02-14T23:59:29.173Z,102233.22
